createdAt,value
2022-08-31T00:00:31.939Z,9.80
2022-08-31T00:03:17.449Z,9.80
2022-08-31T00:05:45.162Z,9.80
2022-08-31T00:08:12.244Z,9.80
2022-08-31T00:10:43.289Z,9.80
2022-08-31T00:13:12.266Z,9.70
2022-08-31T00:15:39.425Z,9.60
2022-08-31T00:18:07.200Z,9.60
2022-08-31T00:20:34.957Z,9.50
2022-08-31T00:23:04.749Z,9.40
2022-08-31T00:25:33.690Z,9.30
2022-08-31T00:28:00.669Z,9.30
2022-08-31T00:30:29.705Z,9.20
2022-08-31T00:32:57.070Z,9.10
2022-08-31T00:35:27.292Z,9.10
2022-08-31T00:37:54.466Z,9.00
2022-08-31T00:40:22.082Z,9.00
2022-08-31T00:42:49.027Z,8.90
2022-08-31T00:45:16.209Z,8.90
2022-08-31T00:47:43.143Z,8.90
2022-08-31T00:50:13.239Z,8.90
2022-08-31T00:52:42.828Z,8.90
2022-08-31T00:55:11.788Z,8.90
2022-08-31T00:57:41.604Z,8.90
2022-08-31T01:00:14.023Z,8.90
2022-08-31T01:02:41.769Z,8.90
2022-08-31T01:05:09.788Z,8.90
2022-08-31T01:07:38.240Z,8.90
2022-08-31T01:10:06.126Z,8.80
2022-08-31T01:12:33.050Z,8.80
2022-08-31T01:15:02.617Z,8.80
2022-08-31T01:17:32.027Z,8.80
2022-08-31T01:20:10.684Z,8.80
2022-08-31T01:22:47.526Z,8.80
2022-08-31T01:25:15.283Z,8.80
2022-08-31T01:27:42.555Z,8.80
2022-08-31T01:30:11.733Z,8.80
2022-08-31T01:32:40.347Z,8.80
2022-08-31T01:35:07.923Z,8.70
2022-08-31T01:37:39.158Z,8.70
2022-08-31T01:40:07.064Z,8.60
2022-08-31T01:42:34.575Z,8.60
2022-08-31T01:45:02.427Z,8.60
2022-08-31T01:47:29.317Z,8.60
2022-08-31T01:49:57.524Z,8.60
2022-08-31T01:52:27.815Z,8.60
2022-08-31T01:54:56.072Z,8.60
2022-08-31T01:57:33.301Z,8.50
2022-08-31T02:00:34.430Z,8.50
2022-08-31T02:03:07.821Z,8.40
2022-08-31T02:05:36.188Z,8.40
2022-08-31T02:08:05.152Z,8.40
2022-08-31T02:10:32.204Z,8.30
2022-08-31T02:12:59.186Z,8.30
2022-08-31T02:15:38.017Z,8.30
2022-08-31T02:18:05.727Z,8.30
2022-08-31T02:20:32.623Z,8.20
2022-08-31T02:23:03.559Z,8.20
2022-08-31T02:25:31.006Z,8.30
2022-08-31T02:27:59.420Z,8.20
2022-08-31T02:30:26.555Z,8.20
2022-08-31T02:32:53.508Z,8.20
2022-08-31T02:35:20.563Z,8.20
2022-08-31T02:37:48.238Z,8.10
2022-08-31T02:40:15.920Z,8.10
2022-08-31T02:42:52.872Z,8.00
2022-08-31T02:45:24.515Z,8.00
2022-08-31T02:47:52.201Z,7.90
2022-08-31T02:50:30.938Z,7.90
2022-08-31T02:52:58.831Z,7.80
2022-08-31T02:55:28.276Z,7.80
2022-08-31T02:57:55.364Z,7.80
2022-08-31T03:00:24.422Z,7.70
2022-08-31T03:02:51.378Z,7.70
2022-08-31T03:05:19.410Z,7.80
2022-08-31T03:07:46.531Z,7.80
2022-08-31T03:10:14.996Z,7.80
2022-08-31T03:12:43.543Z,7.90
2022-08-31T03:15:11.508Z,7.90
2022-08-31T03:17:38.460Z,7.90
2022-08-31T03:20:08.784Z,7.90
2022-08-31T03:22:35.748Z,7.80
2022-08-31T03:25:05.363Z,7.70
2022-08-31T03:27:32.502Z,7.70
2022-08-31T03:30:00.333Z,7.70
2022-08-31T03:32:30.999Z,7.60
2022-08-31T03:34:59.995Z,7.60
2022-08-31T03:37:27.664Z,7.60
2022-08-31T03:39:59.040Z,7.60
2022-08-31T03:42:27.607Z,7.60
2022-08-31T03:44:55.934Z,7.50
2022-08-31T03:47:28.585Z,7.40
2022-08-31T03:49:56.218Z,7.40
2022-08-31T03:52:27.332Z,7.50
2022-08-31T03:55:01.551Z,7.50
2022-08-31T03:57:29.422Z,7.40
2022-08-31T03:59:57.626Z,7.30
2022-08-31T04:02:44.008Z,7.30
2022-08-31T04:05:27.344Z,7.20
2022-08-31T04:08:12.963Z,7.10
2022-08-31T04:10:50.428Z,7.10
2022-08-31T04:13:20.203Z,7.00
2022-08-31T04:16:09.123Z,6.90
2022-08-31T04:18:59.976Z,6.90
2022-08-31T04:21:31.039Z,6.90
2022-08-31T04:23:59.393Z,6.90
2022-08-31T04:26:32.107Z,6.90
2022-08-31T04:29:01.507Z,6.90
2022-08-31T04:31:29.053Z,6.90
2022-08-31T04:33:56.985Z,6.90
2022-08-31T04:36:27.795Z,7.00
2022-08-31T04:38:58.112Z,7.00
2022-08-31T04:41:27.403Z,7.10
2022-08-31T04:43:56.619Z,7.20
2022-08-31T04:46:25.809Z,7.20
2022-08-31T04:48:54.651Z,7.30
2022-08-31T04:51:27.203Z,7.30
2022-08-31T04:53:55.364Z,7.30
2022-08-31T04:56:27.233Z,7.30
2022-08-31T04:59:04.119Z,7.40
2022-08-31T05:01:43.346Z,7.40
2022-08-31T05:04:48.954Z,7.30
2022-08-31T05:07:16.853Z,7.30
2022-08-31T05:09:44.115Z,7.20
2022-08-31T05:12:10.937Z,7.20
2022-08-31T05:14:39.238Z,7.20
2022-08-31T05:17:16.623Z,7.20
2022-08-31T05:19:44.269Z,7.20
2022-08-31T05:22:14.395Z,7.30
2022-08-31T05:24:43.714Z,7.30
2022-08-31T05:27:12.871Z,7.40
2022-08-31T05:29:42.126Z,7.40
2022-08-31T05:32:29.450Z,7.50
2022-08-31T05:34:58.874Z,7.70
2022-08-31T05:37:27.042Z,7.90
2022-08-31T05:39:54.530Z,8.00
2022-08-31T05:42:21.617Z,8.10
2022-08-31T05:44:49.519Z,8.20
2022-08-31T05:47:17.023Z,8.20
2022-08-31T05:49:44.722Z,8.20
2022-08-31T05:52:16.032Z,8.10
2022-08-31T05:54:43.697Z,8.10
2022-08-31T05:57:10.598Z,8.00
2022-08-31T05:59:39.527Z,8.00
2022-08-31T06:02:10.978Z,8.10
2022-08-31T06:04:39.033Z,8.10
2022-08-31T06:07:06.080Z,8.30
2022-08-31T06:09:42.894Z,8.50
2022-08-31T06:12:11.079Z,8.80
2022-08-31T06:14:44.751Z,9.10
2022-08-31T06:17:13.176Z,9.40
2022-08-31T06:19:40.094Z,9.60
2022-08-31T06:22:07.210Z,9.80
2022-08-31T06:24:34.286Z,10.00
2022-08-31T06:27:01.750Z,10.30
2022-08-31T06:29:31.830Z,10.50
2022-08-31T06:32:00.821Z,10.70
2022-08-31T06:34:29.507Z,10.90
2022-08-31T06:37:06.936Z,11.10
2022-08-31T06:39:53.756Z,11.20
2022-08-31T06:42:46.609Z,11.30
2022-08-31T06:45:47.224Z,11.30
2022-08-31T06:48:32.661Z,11.40
2022-08-31T06:50:59.649Z,11.40
2022-08-31T06:53:29.868Z,11.30
2022-08-31T06:56:20.236Z,11.30
2022-08-31T06:59:08.174Z,11.20
2022-08-31T07:01:53.665Z,11.30
2022-08-31T07:04:36.549Z,11.50
2022-08-31T07:07:06.058Z,11.60
2022-08-31T07:09:35.698Z,11.80
2022-08-31T07:12:04.441Z,11.90
2022-08-31T07:14:31.753Z,12.00
2022-08-31T07:16:59.833Z,12.00
2022-08-31T07:19:26.882Z,12.10
2022-08-31T07:21:57.945Z,12.20
2022-08-31T07:24:30.396Z,12.20
2022-08-31T07:27:04.601Z,12.40
2022-08-31T07:30:00.272Z,12.40
2022-08-31T07:32:30.440Z,12.60
2022-08-31T07:35:00.735Z,12.70
2022-08-31T07:37:49.918Z,12.80
2022-08-31T07:40:37.420Z,12.90
2022-08-31T07:43:10.433Z,13.10
2022-08-31T07:45:39.322Z,13.30
2022-08-31T07:48:07.166Z,13.50
2022-08-31T07:50:54.387Z,13.60
2022-08-31T07:53:47.698Z,13.80
2022-08-31T07:56:26.327Z,13.90
2022-08-31T07:59:08.199Z,14.00
2022-08-31T08:01:41.495Z,14.00
2022-08-31T08:04:13.294Z,14.00
2022-08-31T08:07:00.834Z,14.00
2022-08-31T08:09:44.086Z,14.20
2022-08-31T08:12:22.474Z,14.40
2022-08-31T08:15:19.106Z,14.60
2022-08-31T08:18:13.446Z,14.80
2022-08-31T08:20:48.102Z,14.90
2022-08-31T08:23:18.174Z,15.00
2022-08-31T08:26:21.969Z,15.20
2022-08-31T08:29:14.704Z,15.40
2022-08-31T08:31:46.230Z,15.60
2022-08-31T08:34:13.334Z,15.70
2022-08-31T08:36:40.758Z,15.90
2022-08-31T08:39:09.606Z,16.10
2022-08-31T08:41:42.879Z,16.20
2022-08-31T08:44:18.055Z,16.30
2022-08-31T08:46:50.171Z,16.30
2022-08-31T08:49:20.934Z,16.50
2022-08-31T08:51:58.134Z,16.70
2022-08-31T08:54:38.848Z,16.80
2022-08-31T08:57:14.764Z,17.10
2022-08-31T08:59:49.143Z,17.30
2022-08-31T09:02:22.129Z,17.20
2022-08-31T09:04:59.683Z,17.20
2022-08-31T09:08:16.180Z,17.20
2022-08-31T09:10:45.695Z,17.40
2022-08-31T09:13:31.822Z,17.50
2022-08-31T09:16:28.455Z,17.70
2022-08-31T09:19:07.231Z,17.80
2022-08-31T09:21:56.489Z,17.80
2022-08-31T09:24:30.299Z,17.60
2022-08-31T09:27:18.631Z,17.50
2022-08-31T09:29:52.462Z,17.30
2022-08-31T09:32:29.063Z,17.30
2022-08-31T09:35:01.679Z,17.40
2022-08-31T09:37:38.228Z,17.50
2022-08-31T09:40:24.307Z,17.50
2022-08-31T09:43:08.332Z,17.60
2022-08-31T09:45:54.925Z,17.60
2022-08-31T09:48:56.443Z,17.70
2022-08-31T09:51:36.087Z,18.00
2022-08-31T09:54:24.712Z,18.10
2022-08-31T09:56:59.244Z,18.00
2022-08-31T09:59:40.165Z,18.00
2022-08-31T10:02:33.567Z,18.10
2022-08-31T10:05:06.357Z,18.10
2022-08-31T10:07:56.651Z,18.30
2022-08-31T10:10:31.405Z,18.50
2022-08-31T10:13:18.179Z,18.80
2022-08-31T10:16:00.111Z,18.80
2022-08-31T10:18:39.502Z,18.90
2022-08-31T10:21:12.430Z,18.90
2022-08-31T10:23:56.746Z,19.00
2022-08-31T10:26:36.064Z,19.00
2022-08-31T10:29:15.697Z,18.80
2022-08-31T10:31:53.780Z,18.80
2022-08-31T10:34:52.584Z,18.60
2022-08-31T10:37:31.589Z,18.50
2022-08-31T10:40:23.249Z,18.60
2022-08-31T10:43:09.372Z,18.70
2022-08-31T10:45:46.052Z,18.80
2022-08-31T10:48:13.298Z,18.60
2022-08-31T10:50:45.215Z,18.60
2022-08-31T10:53:40.344Z,18.70
2022-08-31T10:56:16.315Z,18.80
2022-08-31T10:58:45.930Z,19.10
2022-08-31T11:01:40.171Z,19.20
2022-08-31T11:04:42.924Z,19.20
2022-08-31T11:07:15.955Z,19.20
2022-08-31T11:09:54.931Z,19.10
2022-08-31T11:12:39.795Z,19.20
2022-08-31T11:15:39.972Z,19.10
2022-08-31T11:18:15.833Z,19.10
2022-08-31T11:21:00.510Z,19.10
2022-08-31T11:23:57.579Z,19.30
2022-08-31T11:26:59.414Z,19.40
2022-08-31T11:29:43.222Z,19.50
2022-08-31T11:32:26.035Z,19.70
2022-08-31T11:34:56.495Z,19.90
2022-08-31T11:37:53.140Z,20.00
2022-08-31T11:40:46.909Z,19.90
2022-08-31T11:43:15.129Z,19.70
2022-08-31T11:45:43.242Z,19.70
2022-08-31T11:48:30.457Z,19.70
2022-08-31T11:51:07.245Z,19.70
2022-08-31T11:53:37.843Z,19.60
2022-08-31T11:56:06.979Z,19.80
2022-08-31T11:58:38.335Z,19.90
2022-08-31T12:01:33.898Z,20.00
2022-08-31T12:04:03.993Z,19.80
2022-08-31T12:06:50.826Z,19.70
2022-08-31T12:09:23.460Z,19.60
2022-08-31T12:11:50.356Z,19.60
2022-08-31T12:14:29.657Z,19.70
2022-08-31T12:17:22.897Z,19.90
2022-08-31T12:20:13.640Z,20.20
2022-08-31T12:23:30.632Z,20.30
2022-08-31T12:26:01.447Z,20.50
2022-08-31T12:28:59.274Z,20.60
2022-08-31T12:31:26.754Z,20.60
2022-08-31T12:34:17.041Z,20.60
2022-08-31T12:36:44.350Z,20.70
2022-08-31T12:39:20.630Z,20.90
2022-08-31T12:41:52.558Z,21.10
2022-08-31T12:44:33.596Z,21.30
2022-08-31T12:47:25.359Z,21.60
2022-08-31T12:49:52.301Z,21.90
2022-08-31T12:52:28.902Z,22.10
2022-08-31T12:55:22.581Z,22.00
2022-08-31T12:58:07.791Z,21.90
2022-08-31T13:00:39.432Z,21.80
2022-08-31T13:03:14.944Z,21.80
2022-08-31T13:05:42.213Z,21.90
2022-08-31T13:08:25.090Z,21.70
2022-08-31T13:10:52.555Z,21.30
2022-08-31T13:13:30.173Z,21.10
2022-08-31T13:16:04.719Z,21.10
2022-08-31T13:18:31.792Z,20.90
2022-08-31T13:21:06.647Z,20.80
2022-08-31T13:23:41.183Z,20.60
2022-08-31T13:26:21.206Z,20.40
2022-08-31T13:28:50.246Z,20.30
2022-08-31T13:31:26.814Z,20.10
2022-08-31T13:34:00.164Z,20.20
2022-08-31T13:36:35.114Z,20.40
2022-08-31T13:39:19.625Z,20.50
2022-08-31T13:42:06.977Z,20.40
2022-08-31T13:44:39.782Z,20.50
2022-08-31T13:47:30.219Z,20.30
2022-08-31T13:50:13.264Z,20.40
2022-08-31T13:53:22.552Z,20.40
2022-08-31T13:55:43.714Z,20.60
2022-08-31T13:58:27.299Z,20.60
2022-08-31T14:01:24.424Z,20.60
2022-08-31T14:03:59.054Z,20.70
2022-08-31T14:06:32.251Z,20.80
2022-08-31T14:09:19.193Z,20.80
2022-08-31T14:12:04.345Z,20.80
2022-08-31T14:14:41.592Z,20.60
2022-08-31T14:17:16.407Z,20.70
2022-08-31T14:19:45.116Z,20.70
2022-08-31T14:22:33.113Z,20.60
2022-08-31T14:25:00.913Z,20.70
2022-08-31T14:27:29.340Z,20.70
2022-08-31T14:29:58.261Z,20.70
2022-08-31T14:32:25.710Z,20.70
2022-08-31T14:34:53.341Z,20.70
2022-08-31T14:37:23.170Z,20.80
2022-08-31T14:39:53.685Z,20.90
2022-08-31T14:42:27.244Z,21.00
2022-08-31T14:45:08.364Z,21.10
2022-08-31T14:47:42.594Z,21.00
2022-08-31T14:50:11.668Z,21.00
2022-08-31T14:52:41.626Z,20.90
2022-08-31T14:55:11.161Z,21.00
2022-08-31T14:57:46.840Z,21.10
2022-08-31T15:00:21.990Z,21.10
2022-08-31T15:02:53.553Z,21.20
2022-08-31T15:05:23.935Z,21.00
2022-08-31T15:07:53.048Z,20.80
2022-08-31T15:10:22.903Z,20.70
2022-08-31T15:12:50.448Z,20.70
2022-08-31T15:15:20.439Z,20.60
2022-08-31T15:17:50.265Z,20.70
2022-08-31T15:20:19.655Z,20.70
2022-08-31T15:22:47.885Z,20.70
2022-08-31T15:25:15.784Z,20.60
2022-08-31T15:27:44.547Z,20.70
2022-08-31T15:30:14.715Z,20.60
2022-08-31T15:32:45.040Z,20.70
2022-08-31T15:35:18.065Z,20.70
2022-08-31T15:37:53.225Z,20.70
2022-08-31T15:40:21.635Z,20.70
2022-08-31T15:42:50.262Z,20.60
2022-08-31T15:45:17.172Z,20.40
2022-08-31T15:48:02.729Z,20.40
2022-08-31T15:50:31.802Z,20.40
2022-08-31T15:53:09.464Z,20.40
2022-08-31T15:55:40.634Z,20.60
2022-08-31T15:58:09.360Z,20.60
2022-08-31T16:00:37.298Z,20.70
2022-08-31T16:03:06.187Z,20.70
2022-08-31T16:05:39.046Z,20.70
2022-08-31T16:08:10.628Z,20.70
2022-08-31T16:10:41.957Z,20.70
2022-08-31T16:13:10.163Z,20.70
2022-08-31T16:15:38.759Z,20.60
2022-08-31T16:18:06.098Z,20.60
2022-08-31T16:20:34.665Z,20.60
2022-08-31T16:23:03.017Z,20.50
2022-08-31T16:25:47.551Z,20.50
2022-08-31T16:28:20.198Z,20.50
2022-08-31T16:30:47.662Z,20.50
2022-08-31T16:33:14.710Z,20.40
2022-08-31T16:35:41.639Z,20.40
2022-08-31T16:38:08.595Z,20.30
2022-08-31T16:40:35.747Z,20.30
2022-08-31T16:43:03.654Z,20.20
2022-08-31T16:45:30.746Z,20.20
2022-08-31T16:48:16.090Z,20.20
2022-08-31T16:50:47.648Z,20.30
2022-08-31T16:53:18.134Z,20.30
2022-08-31T16:55:47.441Z,20.30
2022-08-31T16:58:21.569Z,20.40
2022-08-31T17:01:12.672Z,20.40
2022-08-31T17:03:57.615Z,20.40
2022-08-31T17:06:27.481Z,20.40
2022-08-31T17:08:56.748Z,20.30
2022-08-31T17:11:26.633Z,20.40
2022-08-31T17:13:59.226Z,20.40
2022-08-31T17:16:31.681Z,20.40
2022-08-31T17:18:59.636Z,20.40
2022-08-31T17:21:29.040Z,20.40
2022-08-31T17:23:58.843Z,20.30
2022-08-31T17:26:31.129Z,20.30
2022-08-31T17:29:02.460Z,20.30
2022-08-31T17:31:34.872Z,20.30
2022-08-31T17:34:02.455Z,20.20
2022-08-31T17:36:35.422Z,20.20
2022-08-31T17:39:04.746Z,20.20
2022-08-31T17:41:32.311Z,20.10
2022-08-31T17:43:59.598Z,20.00
2022-08-31T17:46:30.413Z,19.90
2022-08-31T17:48:57.666Z,19.90
2022-08-31T17:51:30.552Z,19.80
2022-08-31T17:54:04.560Z,19.70
2022-08-31T17:56:35.030Z,19.70
2022-08-31T17:59:02.256Z,19.70
2022-08-31T18:01:31.948Z,19.60
2022-08-31T18:04:01.847Z,19.50
2022-08-31T18:06:29.279Z,19.40
2022-08-31T18:08:58.338Z,19.30
2022-08-31T18:11:26.131Z,19.20
2022-08-31T18:13:53.839Z,19.10
2022-08-31T18:16:21.174Z,19.00
2022-08-31T18:18:49.795Z,18.90
2022-08-31T18:21:22.135Z,18.80
2022-08-31T18:23:53.443Z,18.60
2022-08-31T18:26:24.376Z,18.40
2022-08-31T18:28:52.968Z,18.20
2022-08-31T18:31:28.179Z,18.10
2022-08-31T18:33:56.571Z,18.00
2022-08-31T18:36:25.881Z,17.80
2022-08-31T18:38:55.397Z,17.60
2022-08-31T18:41:42.747Z,17.50
2022-08-31T18:44:28.799Z,17.30
2022-08-31T18:47:00.193Z,17.10
2022-08-31T18:49:28.128Z,16.80
2022-08-31T18:51:57.196Z,16.70
2022-08-31T18:54:24.378Z,16.50
2022-08-31T18:56:51.367Z,16.40
2022-08-31T18:59:20.010Z,16.30
2022-08-31T19:01:47.160Z,16.00
2022-08-31T19:04:17.586Z,15.90
2022-08-31T19:06:46.891Z,15.70
2022-08-31T19:09:13.861Z,15.50
2022-08-31T19:11:51.711Z,15.40
2022-08-31T19:14:20.598Z,15.20
2022-08-31T19:16:51.385Z,15.10
2022-08-31T19:19:22.210Z,15.00
2022-08-31T19:21:49.798Z,14.90
2022-08-31T19:24:18.562Z,14.80
2022-08-31T19:26:49.578Z,14.80
2022-08-31T19:29:22.895Z,14.80
2022-08-31T19:31:51.057Z,14.80
2022-08-31T19:34:29.378Z,14.70
2022-08-31T19:36:57.830Z,14.70
2022-08-31T19:39:27.885Z,14.60
2022-08-31T19:41:58.430Z,14.60
2022-08-31T19:44:54.520Z,14.50
2022-08-31T19:47:25.240Z,14.40
2022-08-31T19:49:52.855Z,14.20
2022-08-31T19:52:20.483Z,14.20
2022-08-31T19:54:48.766Z,14.10
2022-08-31T19:57:16.702Z,14.10
2022-08-31T19:59:43.743Z,13.90
2022-08-31T20:02:11.321Z,13.80
2022-08-31T20:04:38.399Z,13.70
2022-08-31T20:07:06.456Z,13.60
2022-08-31T20:09:34.132Z,13.60
2022-08-31T20:12:02.095Z,13.50
2022-08-31T20:14:29.393Z,13.50
2022-08-31T20:16:59.373Z,13.40
2022-08-31T20:19:27.469Z,13.50
2022-08-31T20:22:04.326Z,13.40
2022-08-31T20:24:31.271Z,13.30
2022-08-31T20:27:09.005Z,13.20
2022-08-31T20:29:38.782Z,13.10
2022-08-31T20:32:07.840Z,13.10
2022-08-31T20:34:35.130Z,13.00
2022-08-31T20:37:02.884Z,13.00
2022-08-31T20:39:32.067Z,12.90
2022-08-31T20:42:00.536Z,12.80
2022-08-31T20:44:34.825Z,12.70
2022-08-31T20:47:25.545Z,12.60
2022-08-31T20:49:54.243Z,12.60
2022-08-31T20:52:24.824Z,12.50
2022-08-31T20:55:01.377Z,12.40
2022-08-31T20:57:31.927Z,12.40
2022-08-31T21:00:04.608Z,12.40
2022-08-31T21:02:33.265Z,12.30
2022-08-31T21:05:26.750Z,12.30
2022-08-31T21:07:48.018Z,12.20
2022-08-31T21:10:14.876Z,12.20
2022-08-31T21:12:41.760Z,12.10
2022-08-31T21:15:10.252Z,12.10
2022-08-31T21:17:40.489Z,12.10
2022-08-31T21:20:08.157Z,12.10
2022-08-31T21:22:35.153Z,12.10
2022-08-31T21:25:02.135Z,12.20
2022-08-31T21:27:29.507Z,12.20
2022-08-31T21:29:56.619Z,12.00
2022-08-31T21:32:24.495Z,11.90
2022-08-31T21:34:56.534Z,11.80
2022-08-31T21:37:23.515Z,11.70
2022-08-31T21:39:53.488Z,11.60
2022-08-31T21:42:24.251Z,11.50
2022-08-31T21:44:51.272Z,11.50
2022-08-31T21:47:18.243Z,11.40
2022-08-31T21:49:45.571Z,11.30
2022-08-31T21:52:12.601Z,11.20
2022-08-31T21:54:44.798Z,11.20
2022-08-31T21:57:12.987Z,11.10
2022-08-31T21:59:39.780Z,11.00
2022-08-31T22:02:12.650Z,11.00
2022-08-31T22:04:43.146Z,11.00
2022-08-31T22:07:14.033Z,10.90
2022-08-31T22:09:41.910Z,10.90
2022-08-31T22:12:09.789Z,10.80
2022-08-31T22:14:39.906Z,10.90
2022-08-31T22:17:07.791Z,10.90
2022-08-31T22:19:38.924Z,10.90
2022-08-31T22:22:11.695Z,10.90
2022-08-31T22:24:40.311Z,10.80
2022-08-31T22:27:09.294Z,10.70
2022-08-31T22:29:37.850Z,10.70
2022-08-31T22:32:13.816Z,10.60
2022-08-31T22:34:42.470Z,10.60
2022-08-31T22:37:09.396Z,10.50
2022-08-31T22:39:36.701Z,10.50
2022-08-31T22:42:04.987Z,10.50
2022-08-31T22:44:34.483Z,10.50
2022-08-31T22:47:01.995Z,10.60
2022-08-31T22:49:29.436Z,10.60
2022-08-31T22:51:56.947Z,10.60
2022-08-31T22:54:24.689Z,10.60
2022-08-31T22:56:52.706Z,10.60
2022-08-31T22:59:26.154Z,10.50
2022-08-31T23:01:56.076Z,10.40
2022-08-31T23:04:26.207Z,10.40
2022-08-31T23:06:55.325Z,10.30
2022-08-31T23:09:27.333Z,10.30
2022-08-31T23:11:55.925Z,10.30
2022-08-31T23:14:23.856Z,10.20
2022-08-31T23:16:59.079Z,10.20
2022-08-31T23:19:33.403Z,10.10
2022-08-31T23:22:01.571Z,10.10
2022-08-31T23:24:41.200Z,10.20
2022-08-31T23:27:10.217Z,10.10
2022-08-31T23:29:46.083Z,10.10
2022-08-31T23:32:19.290Z,10.10
2022-08-31T23:34:49.763Z,10.10
2022-08-31T23:37:17.793Z,10.00
2022-08-31T23:39:45.205Z,9.90
2022-08-31T23:42:13.916Z,9.90
2022-08-31T23:44:43.550Z,9.80
2022-08-31T23:47:22.263Z,9.80
2022-08-31T23:49:53.353Z,9.80
2022-08-31T23:52:23.284Z,9.70
2022-08-31T23:54:52.864Z,9.80
2022-08-31T23:57:32.221Z,9.80
